createdAt,value
2018-06-12T00:06:51.782Z,6.2
2018-06-12T00:17:41.840Z,6.0
2018-06-12T00:28:11.556Z,5.1
2018-06-12T00:39:12.701Z,7.6
2018-06-12T00:49:33.815Z,5.2
2018-06-12T00:59:55.559Z,3.9
2018-06-12T01:10:10.900Z,6.9
2018-06-12T01:20:57.902Z,5.4
2018-06-12T01:31:12.852Z,5.2
2018-06-12T01:41:36.429Z,5.3
2018-06-12T01:52:25.289Z,7.1
2018-06-12T02:02:53.106Z,4.3
2018-06-12T02:13:09.908Z,4.7
2018-06-12T02:23:28.848Z,4.8
2018-06-12T02:33:48.506Z,5.5
2018-06-12T02:44:39.798Z,6.1
2018-06-12T02:55:32.269Z,6.2
2018-06-12T03:05:55.140Z,6.5
2018-06-12T03:16:09.753Z,5.0
2018-06-12T03:26:24.500Z,4.2
2018-06-12T03:36:45.825Z,4.8
2018-06-12T03:47:33.401Z,6.1
2018-06-12T03:57:53.885Z,5.0
2018-06-12T04:08:10.690Z,5.3
2018-06-12T04:19:03.747Z,5.5
2018-06-12T04:29:18.324Z,4.7
2018-06-12T04:50:25.444Z,5.9
2018-06-12T05:00:43.220Z,4.1
2018-06-12T05:11:07.686Z,3.9
2018-06-12T05:21:28.152Z,4.7
2018-06-12T05:31:49.843Z,3.3
2018-06-12T05:42:09.691Z,4.1
2018-06-12T05:52:29.664Z,4.3
2018-06-12T06:02:47.499Z,4.1
2018-06-12T06:13:05.390Z,4.4
2018-06-12T06:23:27.118Z,4.4
2018-06-12T06:34:18.442Z,4.0
2018-06-12T06:44:33.337Z,4.3
2018-06-12T06:55:19.211Z,5.6
2018-06-12T07:05:32.769Z,3.8
2018-06-12T07:15:44.563Z,4.5
2018-06-12T07:26:09.802Z,3.8
2018-06-12T07:37:11.589Z,6.1
2018-06-12T07:47:28.129Z,3.7
2018-06-12T07:57:53.722Z,4.2
2018-06-12T08:08:44.509Z,4.4
2018-06-12T08:19:05.930Z,4.2
2018-06-12T08:29:27.443Z,3.6
2018-06-12T08:39:41.183Z,3.4
2018-06-12T08:50:06.576Z,4.2
2018-06-12T09:00:18.894Z,3.6
2018-06-12T09:11:41.292Z,3.0
2018-06-12T09:21:58.572Z,2.7
2018-06-12T09:32:12.892Z,2.4
2018-06-12T09:42:30.109Z,2.7
2018-06-12T10:02:59.284Z,3.2
2018-06-12T10:24:01.803Z,2.1
2018-06-12T10:34:20.636Z,2.7
2018-06-12T10:44:34.595Z,2.2
2018-06-12T10:54:49.731Z,3.2
2018-06-12T11:05:45.513Z,2.7
2018-06-12T11:16:01.150Z,2.7
2018-06-12T11:26:56.264Z,2.4
2018-06-12T11:47:30.209Z,2.6
2018-06-12T11:57:45.342Z,2.9
2018-06-12T12:08:00.219Z,3.0
2018-06-12T12:18:15.582Z,2.1
2018-06-12T12:29:06.704Z,3.5
2018-06-12T12:39:24.218Z,3.8
2018-06-12T12:49:43.430Z,2.3
2018-06-12T13:00:31.331Z,2.1
2018-06-12T13:10:45.202Z,2.5
2018-06-12T13:20:59.390Z,3.5
2018-06-12T13:31:20.007Z,2.9
2018-06-12T13:41:46.003Z,3.9
2018-06-12T13:52:03.511Z,3.5
2018-06-12T14:02:51.627Z,3.8
2018-06-12T14:13:40.727Z,4.7
2018-06-12T14:24:29.394Z,3.2
2018-06-12T14:35:22.971Z,3.0
2018-06-12T14:45:40.972Z,3.2
2018-06-12T14:56:27.015Z,4.0
2018-06-12T15:17:11.829Z,2.9
2018-06-12T15:27:30.056Z,3.0
2018-06-12T15:37:48.873Z,3.2
2018-06-12T15:48:03.379Z,3.4
2018-06-12T15:58:19.651Z,3.0
2018-06-12T16:08:46.100Z,3.2
2018-06-12T16:20:19.647Z,3.7
2018-06-12T16:40:50.722Z,3.1
2018-06-12T17:01:21.894Z,3.8
2018-06-12T17:11:50.543Z,2.3
2018-06-12T17:22:39.745Z,2.7
2018-06-12T17:32:56.048Z,2.3
2018-06-12T17:43:19.021Z,2.6
2018-06-12T17:53:33.845Z,2.8
2018-06-12T18:03:49.263Z,3.7
2018-06-12T18:14:04.029Z,3.1
2018-06-12T18:36:40.562Z,3.7
2018-06-12T18:52:51.090Z,3.3
2018-06-12T19:04:40.327Z,4.3
2018-06-12T19:16:10.510Z,3.1
2018-06-12T19:31:55.320Z,3.4
2018-06-12T19:43:18.456Z,3.1
2018-06-12T19:56:22.299Z,3.3
2018-06-12T20:20:22.221Z,2.4
2018-06-12T20:30:40.999Z,4.2
2018-06-12T20:40:55.688Z,2.3
2018-06-12T20:51:14.333Z,2.6
2018-06-12T21:01:32.755Z,2.2
2018-06-12T21:11:47.617Z,2.6
2018-06-12T21:22:01.775Z,2.5
2018-06-12T21:32:15.780Z,2.3
2018-06-12T21:43:02.507Z,2.4
2018-06-12T21:53:16.425Z,2.4
2018-06-12T22:04:03.016Z,3.0
2018-06-12T22:14:48.802Z,3.4
2018-06-12T22:25:03.279Z,2.4
2018-06-12T22:35:17.802Z,2.4
2018-06-12T22:45:32.791Z,2.8
2018-06-12T22:56:18.128Z,3.0
2018-06-12T23:06:39.038Z,2.4
2018-06-12T23:16:53.234Z,3.4
2018-06-12T23:27:05.678Z,3.5
2018-06-12T23:37:17.738Z,2.7
2018-06-12T23:47:32.098Z,2.6
2018-06-12T23:57:46.127Z,2.7
